Time;durP1;ratioP1;P1;durP2;ratioP2;P2;SDS_P1;SDS_P2;PMS_P1;PMS_P2;Temp;Humidity;BMP_temperature;BMP_pressure;BME280_temperature;BME280_humidity;BME280_pressure;Samples;Min_cycle;Max_cycle;Signal;HPM_P1;HPM_P2
2023/12/27 00:01:22;;;;;;;1.50;0.63;;;6.30;99.90;;;;;;5078553;28;20496;-64
2023/12/27 00:03:48;;;;;;;13.10;1.43;;;6.30;99.90;;;;;;5080060;28;20583;-66
2023/12/27 00:06:17;;;;;;;7.33;1.37;;;6.20;99.90;;;;;;5079953;28;20539;-66
2023/12/27 00:08:47;;;;;;;2.33;0.90;;;6.10;99.90;;;;;;5080486;28;20475;-66
2023/12/27 00:11:17;;;;;;;5.13;1.10;;;6.00;99.90;;;;;;5083047;28;20468;-66
2023/12/27 00:13:44;;;;;;;9.70;1.40;;;6.00;99.90;;;;;;5086020;28;20968;-66
2023/12/27 00:16:11;;;;;;;4.10;1.47;;;6.00;99.90;;;;;;5086620;28;20441;-66
2023/12/27 00:18:38;;;;;;;2.53;1.10;;;6.00;99.90;;;;;;5092487;28;20488;-64
2023/12/27 00:21:05;;;;;;;5.10;1.00;;;5.90;99.90;;;;;;5094963;28;20449;-65
2023/12/27 00:23:34;;;;;;;2.20;1.07;;;5.90;99.90;;;;;;5095177;28;20528;-66
2023/12/27 00:26:00;;;;;;;9.73;1.40;;;5.80;99.90;;;;;;5096823;28;20429;-65
2023/12/27 00:28:27;;;;;;;6.17;2.00;;;5.80;99.90;;;;;;5096643;28;20472;-65
2023/12/27 00:30:54;;;;;;;4.43;1.30;;;5.80;99.90;;;;;;5096649;28;20477;-65
2023/12/27 00:33:21;;;;;;;3.17;0.93;;;5.80;99.90;;;;;;5096210;28;20475;-65
2023/12/27 00:35:48;;;;;;;8.90;0.90;;;5.80;99.90;;;;;;5095921;28;20498;-66
2023/12/27 00:38:16;;;;;;;4.97;1.40;;;5.80;99.90;;;;;;5095842;28;20461;-66
2023/12/27 00:40:45;;;;;;;6.13;1.67;;;5.80;99.90;;;;;;5096284;28;20428;-66
2023/12/27 00:43:16;;;;;;;3.03;1.37;;;5.70;99.90;;;;;;5096369;28;20461;-64
2023/12/27 00:45:43;;;;;;;2.57;1.30;;;5.70;99.90;;;;;;5096134;28;20441;-66
2023/12/27 00:48:10;;;;;;;3.03;1.20;;;5.60;99.90;;;;;;5096641;28;20449;-65
2023/12/27 00:50:36;;;;;;;2.80;0.90;;;5.60;99.90;;;;;;5097865;28;20406;-64
2023/12/27 00:53:05;;;;;;;6.30;1.00;;;5.50;99.90;;;;;;5097325;28;20441;-65
2023/12/27 00:55:32;;;;;;;3.30;1.10;;;5.50;99.90;;;;;;5095757;28;20430;-65
2023/12/27 00:58:00;;;;;;;2.57;1.30;;;5.40;99.90;;;;;;5094982;28;20797;-65
2023/12/27 01:00:27;;;;;;;1.27;0.70;;;5.50;99.90;;;;;;5094885;28;20444;-64
2023/12/27 01:02:57;;;;;;;6.57;0.90;;;5.50;99.90;;;;;;5095091;28;20442;-65
2023/12/27 01:05:24;;;;;;;2.70;0.90;;;5.40;99.90;;;;;;5087870;28;20476;-65
2023/12/27 01:07:51;;;;;;;4.77;1.67;;;5.40;99.90;;;;;;5082845;28;20788;-65
2023/12/27 01:10:18;;;;;;;5.80;1.00;;;5.50;99.90;;;;;;5079586;28;20530;-65
2023/12/27 01:12:46;;;;;;;7.70;1.40;;;5.40;99.90;;;;;;5080130;28;20451;-66
2023/12/27 01:15:14;;;;;;;1.50;1.00;;;5.50;99.90;;;;;;5084272;28;20456;-66
2023/12/27 01:17:41;;;;;;;3.73;1.33;;;5.50;99.90;;;;;;5087377;28;20459;-66
2023/12/27 01:20:09;;;;;;;4.30;1.03;;;5.40;99.90;;;;;;5086846;28;20498;-65
2023/12/27 01:22:36;;;;;;;4.60;1.10;;;5.40;99.90;;;;;;5093662;28;20482;-65
2023/12/27 01:25:05;;;;;;;1.73;1.33;;;5.40;99.90;;;;;;5093608;28;20475;-65
2023/12/27 01:27:32;;;;;;;4.60;1.57;;;5.40;99.90;;;;;;5093334;28;20447;-65
2023/12/27 01:29:59;;;;;;;3.70;1.40;;;5.50;99.90;;;;;;5093836;28;20484;-66
2023/12/27 01:32:27;;;;;;;9.13;1.43;;;5.50;99.90;;;;;;5094449;28;20441;-66
2023/12/27 01:34:54;;;;;;;4.20;1.40;;;5.40;99.90;;;;;;5094684;28;20469;-66
2023/12/27 01:37:21;;;;;;;4.33;1.37;;;5.40;99.90;;;;;;5094685;28;20445;-65
2023/12/27 01:39:47;;;;;;;15.83;1.30;;;5.40;99.90;;;;;;5094087;28;20479;-67
2023/12/27 01:42:14;;;;;;;2.77;1.00;;;5.40;99.90;;;;;;5094227;28;20467;-64
2023/12/27 01:44:44;;;;;;;9.40;1.07;;;5.40;99.90;;;;;;5094207;28;20468;-66
2023/12/27 01:47:13;;;;;;;5.83;1.67;;;5.40;99.90;;;;;;5095972;28;20443;-65
2023/12/27 01:49:41;;;;;;;2.10;0.90;;;5.40;99.90;;;;;;5095360;28;20523;-65
2023/12/27 01:52:10;;;;;;;1.47;0.80;;;5.30;99.90;;;;;;5096032;28;20440;-64
2023/12/27 01:54:37;;;;;;;2.87;1.10;;;5.30;99.90;;;;;;5096493;28;20467;-65
2023/12/27 01:57:05;;;;;;;1.83;1.00;;;5.30;99.90;;;;;;5097831;28;20425;-65
2023/12/27 01:59:32;;;;;;;5.47;1.53;;;5.30;99.90;;;;;;5100585;28;20468;-66
2023/12/27 02:02:01;;;;;;;1.77;1.20;;;5.20;99.90;;;;;;5100517;28;20420;-65
2023/12/27 02:04:28;;;;;;;1.77;0.90;;;5.20;99.90;;;;;;5100330;28;20553;-65
2023/12/27 02:07:00;;;;;;;3.73;1.10;;;5.20;99.90;;;;;;5099575;28;20474;-65
2023/12/27 02:09:27;;;;;;;14.33;1.20;;;4.80;99.90;;;;;;5099228;28;20453;-65
2023/12/27 02:11:54;;;;;;;10.53;1.60;;;5.30;99.90;;;;;;5100812;28;20463;-66
2023/12/27 02:14:21;;;;;;;7.87;2.00;;;5.20;99.90;;;;;;5100214;28;20450;-65
2023/12/27 02:16:48;;;;;;;3.33;1.27;;;5.30;99.90;;;;;;5099782;28;20500;-64
2023/12/27 02:19:22;;;;;;;5.63;1.40;;;5.20;99.90;;;;;;5099551;28;20902;-65
2023/12/27 02:21:50;;;;;;;8.07;2.03;;;5.20;99.90;;;;;;5098387;28;20446;-65
2023/12/27 02:24:19;;;;;;;5.03;1.10;;;5.20;99.90;;;;;;5097045;28;20511;-66
2023/12/27 02:26:48;;;;;;;6.80;1.60;;;5.20;99.90;;;;;;5097873;28;20451;-66
2023/12/27 02:29:18;;;;;;;1.43;0.60;;;5.20;99.90;;;;;;5097619;28;20446;-65
2023/12/27 02:31:45;;;;;;;11.63;1.80;;;5.10;99.90;;;;;;5098852;28;20428;-65
2023/12/27 02:34:12;;;;;;;5.17;1.33;;;5.10;99.90;;;;;;5098527;28;20451;-68
2023/12/27 02:36:38;;;;;;;2.77;1.80;;;5.10;99.90;;;;;;5098971;28;20478;-66
2023/12/27 02:39:05;;;;;;;6.40;0.80;;;5.10;99.90;;;;;;5099071;28;20444;-65
2023/12/27 02:41:32;;;;;;;4.60;1.10;;;5.00;99.90;;;;;;5098226;28;20488;-65
2023/12/27 02:44:03;;;;;;;2.87;1.40;;;5.00;99.90;;;;;;5097675;28;20473;-65
2023/12/27 02:46:33;;;;;;;8.33;1.33;;;5.00;99.90;;;;;;5096806;28;20416;-66
2023/12/27 02:49:02;;;;;;;3.07;1.33;;;5.00;99.90;;;;;;5092295;28;20454;-66
2023/12/27 02:51:28;;;;;;;7.80;1.00;;;5.10;99.90;;;;;;5090726;28;20456;-66
2023/12/27 02:53:55;;;;;;;6.80;1.43;;;5.10;99.90;;;;;;5088749;28;20470;-66
2023/12/27 02:56:22;;;;;;;4.30;2.70;;;4.90;99.90;;;;;;5082464;28;20496;-63
2023/12/27 02:58:49;;;;;;;3.73;0.97;;;5.00;99.90;;;;;;5082073;28;20920;-66
2023/12/27 03:01:20;;;;;;;5.23;1.33;;;5.10;99.90;;;;;;5082776;28;20968;-65
2023/12/27 03:03:47;;;;;;;4.50;1.10;;;5.10;99.90;;;;;;5082823;28;20435;-64
2023/12/27 03:06:14;;;;;;;2.50;1.07;;;5.10;99.90;;;;;;5089251;28;20973;-65
2023/12/27 03:08:41;;;;;;;5.00;1.33;;;5.10;99.90;;;;;;5089130;28;20502;-65
2023/12/27 03:11:08;;;;;;;5.23;1.23;;;5.10;99.90;;;;;;5088821;28;20467;-65
2023/12/27 03:13:35;;;;;;;1.70;0.83;;;5.10;99.90;;;;;;5089880;28;20448;-65
2023/12/27 03:16:05;;;;;;;1.33;0.93;;;5.10;99.90;;;;;;5089137;28;20464;-66
2023/12/27 03:18:34;;;;;;;13.17;1.90;;;5.10;99.90;;;;;;5089156;28;20439;-66
2023/12/27 03:21:01;;;;;;;3.03;1.20;;;5.00;99.90;;;;;;5086810;28;20505;-66
2023/12/27 03:23:28;;;;;;;5.63;2.03;;;5.00;99.90;;;;;;5082154;28;20480;-65
2023/12/27 03:25:55;;;;;;;11.90;1.73;;;5.00;99.90;;;;;;5083489;28;20492;-64
2023/12/27 03:28:22;;;;;;;1.83;1.10;;;5.10;99.90;;;;;;5083952;28;20456;-64
2023/12/27 03:30:48;;;;;;;1.57;0.90;;;5.10;99.90;;;;;;5081828;28;20482;-64
2023/12/27 03:33:15;;;;;;;9.10;1.60;;;5.00;99.90;;;;;;5082142;28;20445;-65
2023/12/27 03:35:43;;;;;;;5.27;1.40;;;5.00;99.90;;;;;;5080320;28;20510;-65
2023/12/27 03:38:10;;;;;;;6.40;1.07;;;5.00;99.90;;;;;;5078504;28;20431;-65
2023/12/27 03:40:38;;;;;;;9.50;1.23;;;5.00;99.90;;;;;;5076391;28;20597;-64
2023/12/27 03:43:04;;;;;;;2.83;1.10;;;5.00;99.90;;;;;;5076468;28;20493;-64
2023/12/27 03:45:31;;;;;;;4.33;1.17;;;5.00;99.90;;;;;;5076474;28;20566;-63
2023/12/27 03:47:58;;;;;;;4.37;1.43;;;5.00;99.90;;;;;;5084066;28;20431;-66
2023/12/27 03:50:25;;;;;;;9.13;1.40;;;5.00;99.90;;;;;;5094732;28;20445;-64
2023/12/27 03:52:53;;;;;;;2.23;1.17;;;5.00;99.90;;;;;;5095661;28;20744;-64
2023/12/27 03:55:20;;;;;;;2.70;1.10;;;5.00;99.90;;;;;;5087638;28;20453;-64
2023/12/27 03:57:47;;;;;;;3.27;1.23;;;5.00;99.90;;;;;;5084890;28;20478;-64
2023/12/27 04:00:15;;;;;;;4.03;0.80;;;5.00;99.90;;;;;;5085678;28;20515;-65
2023/12/27 04:02:42;;;;;;;9.30;1.67;;;5.00;99.90;;;;;;5078545;28;20471;-65
2023/12/27 04:05:09;;;;;;;10.03;1.30;;;4.90;99.90;;;;;;5078542;28;20805;-65
2023/12/27 04:07:36;;;;;;;1.50;0.90;;;4.90;99.90;;;;;;5077675;28;20448;-65
2023/12/27 04:10:05;;;;;;;9.13;1.10;;;4.90;99.90;;;;;;5076573;28;20534;-64
2023/12/27 04:12:32;;;;;;;4.03;1.37;;;4.90;99.90;;;;;;5076045;28;20500;-64
2023/12/27 04:15:00;;;;;;;6.63;1.33;;;5.00;99.90;;;;;;5075842;28;20988;-64
2023/12/27 04:17:26;;;;;;;3.17;1.47;;;4.90;99.90;;;;;;5075883;28;20556;-65
2023/12/27 04:19:54;;;;;;;8.53;1.33;;;4.90;99.90;;;;;;5075617;28;20488;-64
2023/12/27 04:22:21;;;;;;;8.93;2.07;;;4.90;99.90;;;;;;5075860;28;20468;-62
2023/12/27 04:24:48;;;;;;;3.80;1.00;;;4.80;99.90;;;;;;5075538;28;20536;-64
2023/12/27 04:27:16;;;;;;;2.00;1.10;;;4.90;99.90;;;;;;5075733;28;20956;-67
2023/12/27 04:29:43;;;;;;;10.40;1.43;;;4.90;99.90;;;;;;5075759;28;20551;-65
2023/12/27 04:32:10;;;;;;;7.57;1.10;;;4.80;99.90;;;;;;5075673;28;20833;-66
2023/12/27 04:34:37;;;;;;;9.60;1.67;;;4.80;99.90;;;;;;5075678;28;20533;-65
2023/12/27 04:37:04;;;;;;;1.17;1.07;;;4.90;99.90;;;;;;5075269;28;20555;-63
2023/12/27 04:39:31;;;;;;;3.43;1.13;;;4.80;99.90;;;;;;5075478;28;20524;-65
2023/12/27 04:41:57;;;;;;;2.83;0.80;;;4.80;99.90;;;;;;5075417;28;20555;-64
2023/12/27 04:44:26;;;;;;;16.10;1.37;;;4.80;99.90;;;;;;5075399;28;20547;-65
2023/12/27 04:46:52;;;;;;;3.43;1.30;;;4.80;99.90;;;;;;5075253;28;20499;-64
2023/12/27 04:49:19;;;;;;;2.73;0.87;;;4.70;99.90;;;;;;5075161;28;20448;-66
2023/12/27 04:51:46;;;;;;;5.50;1.07;;;4.70;99.90;;;;;;5075370;28;20547;-64
2023/12/27 04:54:12;;;;;;;8.97;1.43;;;4.70;99.90;;;;;;5075458;28;20511;-65
2023/12/27 04:56:39;;;;;;;4.33;1.53;;;4.60;99.90;;;;;;5075208;28;20567;-65
2023/12/27 04:59:06;;;;;;;3.20;1.40;;;4.60;99.90;;;;;;5075063;28;20826;-64
2023/12/27 05:01:34;;;;;;;2.73;1.67;;;4.60;99.90;;;;;;5075201;28;20495;-63
2023/12/27 05:04:01;;;;;;;1.20;0.80;;;4.60;99.90;;;;;;5075854;28;20919;-64
2023/12/27 05:06:28;;;;;;;4.00;1.70;;;4.60;99.90;;;;;;5079231;28;20526;-65
2023/12/27 05:08:54;;;;;;;1.53;0.80;;;4.60;99.90;;;;;;5077602;28;20856;-66
2023/12/27 05:11:23;;;;;;;7.40;1.23;;;4.60;99.90;;;;;;5075375;28;20440;-65
2023/12/27 05:13:49;;;;;;;6.53;1.00;;;4.70;99.90;;;;;;5075513;28;20984;-64
2023/12/27 05:16:17;;;;;;;7.23;2.07;;;4.60;99.90;;;;;;5074788;28;20440;-66
2023/12/27 05:18:46;;;;;;;3.80;1.30;;;4.60;99.90;;;;;;5074991;28;20474;-64
2023/12/27 05:21:14;;;;;;;4.33;1.50;;;4.60;99.90;;;;;;5074973;28;20483;-64
2023/12/27 05:23:41;;;;;;;2.40;0.83;;;4.60;99.90;;;;;;5075108;28;20486;-65
2023/12/27 05:26:08;;;;;;;5.70;2.00;;;4.60;99.90;;;;;;5074839;28;20527;-65
2023/12/27 05:28:35;;;;;;;3.37;1.30;;;4.60;99.90;;;;;;5074904;28;20531;-65
2023/12/27 05:31:02;;;;;;;6.43;1.30;;;4.60;99.90;;;;;;5074336;28;20471;-66
2023/12/27 05:33:29;;;;;;;3.20;1.20;;;4.60;99.90;;;;;;5074425;28;20554;-66
2023/12/27 05:36:02;;;;;;;2.73;0.90;;;4.50;99.90;;;;;;5084212;28;20440;-66
2023/12/27 05:38:29;;;;;;;6.20;1.80;;;4.50;99.90;;;;;;5088727;28;20451;-65
2023/12/27 05:40:56;;;;;;;5.70;1.00;;;4.50;99.90;;;;;;5094864;28;20468;-63
2023/12/27 05:43:25;;;;;;;10.07;2.00;;;4.50;99.90;;;;;;5096057;28;20472;-64
2023/12/27 05:45:52;;;;;;;1.33;0.90;;;4.50;99.90;;;;;;5096345;28;20515;-63
2023/12/27 05:48:19;;;;;;;2.30;1.40;;;4.50;99.90;;;;;;5095391;28;20492;-64
2023/12/27 05:50:46;;;;;;;9.30;1.60;;;4.50;99.90;;;;;;5094901;28;20472;-66
2023/12/27 05:53:14;;;;;;;1.30;1.07;;;4.50;99.90;;;;;;5092104;28;21176;-64
2023/12/27 05:55:41;;;;;;;6.93;2.00;;;4.50;99.90;;;;;;5080643;28;20486;-65
2023/12/27 05:58:08;;;;;;;10.27;2.40;;;4.50;99.90;;;;;;5078963;28;20499;-64
2023/12/27 06:00:34;;;;;;;6.33;1.00;;;4.50;99.90;;;;;;5078708;28;20540;-65
2023/12/27 06:03:04;;;;;;;3.20;1.63;;;4.50;99.90;;;;;;5074326;28;20463;-64
2023/12/27 06:05:31;;;;;;;11.53;2.73;;;4.40;99.90;;;;;;5074354;28;20562;-65
2023/12/27 06:07:58;;;;;;;2.13;1.20;;;4.40;99.90;;;;;;5074615;28;20559;-64
2023/12/27 06:10:26;;;;;;;1.57;1.13;;;4.40;99.90;;;;;;5074317;28;20529;-64
2023/12/27 06:12:53;;;;;;;4.53;1.43;;;4.40;99.90;;;;;;5074853;28;20496;-64
2023/12/27 06:15:20;;;;;;;3.20;1.10;;;4.40;99.90;;;;;;5077302;28;20488;-63
2023/12/27 06:17:47;;;;;;;4.43;1.97;;;4.40;99.90;;;;;;5077450;28;20483;-64
2023/12/27 06:20:13;;;;;;;5.47;1.40;;;4.30;99.90;;;;;;5080092;28;20420;-65
2023/12/27 06:22:42;;;;;;;3.03;1.33;;;4.30;99.90;;;;;;5093931;28;20468;-64
2023/12/27 06:25:09;;;;;;;2.30;1.23;;;4.30;99.90;;;;;;5095003;28;20448;-65
2023/12/27 06:27:37;;;;;;;7.50;1.87;;;4.20;99.90;;;;;;5096565;28;20448;-64
2023/12/27 06:30:05;;;;;;;7.27;1.10;;;4.20;99.90;;;;;;5096674;28;20421;-64
2023/12/27 06:32:32;;;;;;;4.57;1.40;;;4.20;99.90;;;;;;5097317;28;20769;-63
2023/12/27 06:34:59;;;;;;;2.60;1.10;;;4.30;99.90;;;;;;5090633;28;20478;-66
2023/12/27 06:37:25;;;;;;;10.87;1.20;;;4.20;99.90;;;;;;5085536;28;20451;-63
2023/12/27 06:39:52;;;;;;;5.80;1.07;;;4.30;99.90;;;;;;5085270;28;20455;-65
2023/12/27 06:42:19;;;;;;;9.73;1.30;;;4.30;99.90;;;;;;5085206;28;20538;-66
2023/12/27 06:44:47;;;;;;;3.33;1.30;;;4.30;99.90;;;;;;5087106;28;20452;-66
2023/12/27 06:47:14;;;;;;;3.80;1.73;;;4.30;99.90;;;;;;5088388;28;20479;-65
2023/12/27 06:49:43;;;;;;;4.20;1.33;;;4.40;99.90;;;;;;5082252;28;20486;-65
2023/12/27 06:52:10;;;;;;;6.43;1.27;;;4.40;99.90;;;;;;5081874;28;20447;-66
2023/12/27 06:54:39;;;;;;;1.57;1.07;;;4.40;99.90;;;;;;5079124;28;20455;-66
2023/12/27 06:57:06;;;;;;;6.30;1.10;;;3.80;99.90;;;;;;5077417;28;20531;-65
2023/12/27 06:59:33;;;;;;;5.50;1.17;;;4.40;99.90;;;;;;5077425;28;20476;-65
2023/12/27 07:02:01;;;;;;;2.90;1.40;;;4.40;99.90;;;;;;5077520;28;20470;-65
2023/12/27 07:04:28;;;;;;;7.17;1.33;;;4.30;99.90;;;;;;5077376;28;20558;-65
2023/12/27 07:06:55;;;;;;;7.50;1.80;;;4.30;99.90;;;;;;5077108;28;20589;-65
2023/12/27 07:09:23;;;;;;;2.87;1.17;;;4.30;99.90;;;;;;5077273;28;20496;-65
2023/12/27 07:11:49;;;;;;;4.80;1.47;;;4.30;99.90;;;;;;5077390;28;20815;-66
2023/12/27 07:14:16;;;;;;;5.87;1.27;;;4.30;99.90;;;;;;5077085;28;20468;-65
2023/12/27 07:16:44;;;;;;;7.43;1.27;;;4.30;99.90;;;;;;5076937;28;20984;-64
2023/12/27 07:19:12;;;;;;;5.23;2.00;;;4.40;99.90;;;;;;5077042;28;20471;-65
2023/12/27 07:21:39;;;;;;;3.00;0.83;;;4.40;99.90;;;;;;5076989;28;20490;-65
2023/12/27 07:24:06;;;;;;;1.97;1.77;;;4.40;99.90;;;;;;5076778;28;20479;-65
2023/12/27 07:26:33;;;;;;;5.97;2.23;;;4.50;99.90;;;;;;5076751;28;20965;-64
2023/12/27 07:29:00;;;;;;;8.40;1.73;;;4.50;99.90;;;;;;5076748;28;20471;-65
2023/12/27 07:31:27;;;;;;;7.13;1.60;;;4.50;99.90;;;;;;5080853;28;20483;-66
2023/12/27 07:33:54;;;;;;;6.83;1.53;;;4.40;99.90;;;;;;5086753;28;20484;-64
2023/12/27 07:36:22;;;;;;;5.70;1.30;;;4.40;99.90;;;;;;5086824;28;20449;-65
2023/12/27 07:38:49;;;;;;;3.00;1.30;;;4.50;99.90;;;;;;5087359;28;20971;-63
2023/12/27 07:41:16;;;;;;;7.40;1.40;;;4.50;99.90;;;;;;5087045;28;20423;-64
2023/12/27 07:43:43;;;;;;;2.73;0.97;;;4.50;99.90;;;;;;5086622;28;20507;-65
2023/12/27 07:46:10;;;;;;;1.17;0.80;;;4.40;99.90;;;;;;5085354;28;20478;-65
2023/12/27 07:48:37;;;;;;;4.87;1.27;;;4.40;99.90;;;;;;5082325;28;20476;-64
2023/12/27 07:51:04;;;;;;;7.93;2.10;;;4.50;99.90;;;;;;5080201;28;20973;-66
2023/12/27 07:53:34;;;;;;;6.63;1.00;;;4.50;99.90;;;;;;5080104;28;20452;-64
2023/12/27 07:56:01;;;;;;;6.80;1.73;;;4.60;99.90;;;;;;5076370;28;20877;-65
2023/12/27 07:58:27;;;;;;;10.03;1.30;;;4.60;99.90;;;;;;5076339;28;20547;-64
2023/12/27 08:00:54;;;;;;;4.50;1.30;;;4.60;99.90;;;;;;5076442;28;20526;-64
2023/12/27 08:03:21;;;;;;;9.60;1.37;;;4.70;99.90;;;;;;5076261;28;20445;-65
2023/12/27 08:05:48;;;;;;;2.60;1.63;;;4.70;99.90;;;;;;5075955;28;20490;-66
2023/12/27 08:08:15;;;;;;;7.23;1.63;;;4.80;99.90;;;;;;5076311;28;20444;-64
2023/12/27 08:10:44;;;;;;;5.03;1.00;;;4.80;99.90;;;;;;5076093;28;20444;-66
2023/12/27 08:13:10;;;;;;;2.07;1.30;;;4.80;99.90;;;;;;5076035;28;20449;-66
2023/12/27 08:15:37;;;;;;;3.17;1.23;;;4.80;99.90;;;;;;5075846;28;20556;-63
2023/12/27 08:18:05;;;;;;;4.00;1.70;;;4.90;99.90;;;;;;5075998;28;20501;-65
2023/12/27 08:20:31;;;;;;;8.53;1.70;;;4.90;99.90;;;;;;5075712;28;20472;-65
2023/12/27 08:22:59;;;;;;;11.83;2.63;;;4.90;99.90;;;;;;5076131;28;20956;-65
2023/12/27 08:25:26;;;;;;;7.00;1.13;;;5.00;99.90;;;;;;5078494;28;20479;-65
2023/12/27 08:27:54;;;;;;;19.83;2.33;;;4.90;99.90;;;;;;5079524;28;20503;-66
2023/12/27 08:30:22;;;;;;;4.17;1.50;;;5.00;99.90;;;;;;5079305;28;20497;-64
2023/12/27 08:32:49;;;;;;;6.90;2.10;;;5.00;99.90;;;;;;5079206;28;20903;-65
2023/12/27 08:35:16;;;;;;;3.97;1.03;;;5.10;99.90;;;;;;5077761;28;20505;-63
2023/12/27 08:37:43;;;;;;;4.67;2.10;;;5.10;99.90;;;;;;5077421;28;20479;-65
2023/12/27 08:40:10;;;;;;;4.40;1.30;;;5.20;99.90;;;;;;5075973;28;20848;-65
2023/12/27 08:42:37;;;;;;;6.73;1.60;;;5.20;99.90;;;;;;5075448;28;20746;-65
2023/12/27 08:45:06;;;;;;;4.13;1.40;;;5.30;99.90;;;;;;5075469;28;20824;-63
2023/12/27 08:47:36;;;;;;;7.53;1.60;;;5.30;99.90;;;;;;5075581;28;20491;-65
2023/12/27 08:50:04;;;;;;;1.40;1.10;;;5.30;99.90;;;;;;5075394;28;20507;-66
2023/12/27 08:52:30;;;;;;;3.40;1.03;;;5.40;99.90;;;;;;5075365;28;20452;-67
2023/12/27 08:54:58;;;;;;;4.60;1.37;;;5.40;99.90;;;;;;5075506;28;20471;-65
2023/12/27 08:57:25;;;;;;;7.80;1.57;;;5.40;99.90;;;;;;5075292;28;20832;-65
2023/12/27 08:59:52;;;;;;;6.30;1.43;;;5.40;99.90;;;;;;5075117;28;20474;-65
2023/12/27 09:02:20;;;;;;;4.23;1.30;;;5.50;99.90;;;;;;5075025;28;20431;-64
2023/12/27 09:04:47;;;;;;;10.63;2.20;;;5.50;99.90;;;;;;5074895;28;20469;-66
2023/12/27 09:07:13;;;;;;;10.10;2.13;;;5.50;99.90;;;;;;5074236;28;20580;-64
2023/12/27 09:09:41;;;;;;;5.50;1.50;;;5.40;99.90;;;;;;5075053;28;20505;-64
2023/12/27 09:12:07;;;;;;;3.07;1.27;;;5.50;99.90;;;;;;5074936;28;20515;-65
2023/12/27 09:14:38;;;;;;;7.43;1.97;;;5.50;99.90;;;;;;5075192;28;20501;-66
2023/12/27 09:17:05;;;;;;;3.50;1.50;;;5.50;99.90;;;;;;5074916;28;20463;-64
2023/12/27 09:19:33;;;;;;;6.90;1.97;;;5.50;99.90;;;;;;5074826;28;20613;-65
2023/12/27 09:22:01;;;;;;;4.37;1.50;;;5.60;99.90;;;;;;5074922;28;20972;-64
2023/12/27 09:24:29;;;;;;;3.80;1.60;;;5.70;99.90;;;;;;5074972;28;20460;-65
2023/12/27 09:26:57;;;;;;;2.70;1.30;;;5.70;99.90;;;;;;5074874;28;20501;-65
2023/12/27 09:29:24;;;;;;;13.10;2.43;;;5.80;99.90;;;;;;5074985;28;20452;-67
2023/12/27 09:31:51;;;;;;;5.37;1.43;;;5.80;99.90;;;;;;5074811;28;20539;-64
2023/12/27 09:34:18;;;;;;;4.63;1.20;;;5.80;99.90;;;;;;5074881;28;20478;-65
2023/12/27 09:36:46;;;;;;;7.60;1.90;;;5.90;99.90;;;;;;5074537;28;20869;-65
2023/12/27 09:39:13;;;;;;;12.57;2.07;;;5.90;99.90;;;;;;5074895;28;20527;-65
2023/12/27 09:41:41;;;;;;;5.63;2.07;;;6.00;99.90;;;;;;5074758;28;20478;-65
2023/12/27 09:44:10;;;;;;;6.03;2.80;;;6.10;99.90;;;;;;5074581;28;20437;-65
2023/12/27 09:46:39;;;;;;;8.83;1.60;;;6.10;99.90;;;;;;5074340;28;20494;-65
2023/12/27 09:49:08;;;;;;;9.33;1.30;;;6.20;99.90;;;;;;5074722;28;20439;-64
2023/12/27 09:51:36;;;;;;;6.60;1.90;;;6.20;99.90;;;;;;5074500;28;20465;-65
2023/12/27 09:54:04;;;;;;;8.03;1.77;;;6.30;99.90;;;;;;5074366;28;20486;-63
2023/12/27 09:56:32;;;;;;;6.83;1.70;;;6.30;99.90;;;;;;5074184;28;20460;-64
2023/12/27 09:59:01;;;;;;;15.53;2.53;;;6.40;99.90;;;;;;5074599;28;20916;-64
2023/12/27 10:01:31;;;;;;;4.00;1.40;;;6.50;99.90;;;;;;5074312;28;20469;-65
2023/12/27 10:04:10;;;;;;;9.50;2.87;;;6.70;99.90;;;;;;5074861;28;20489;-66
2023/12/27 10:06:43;;;;;;;3.10;1.40;;;6.80;99.90;;;;;;5074204;28;20489;-65
2023/12/27 10:09:11;;;;;;;8.93;2.93;;;6.90;99.90;;;;;;5074514;28;20429;-65
2023/12/27 10:11:41;;;;;;;7.23;1.67;;;7.20;99.90;;;;;;5074411;28;21006;-65
2023/12/27 10:14:09;;;;;;;5.20;2.40;;;7.30;99.90;;;;;;5074498;28;20528;-65
2023/12/27 10:16:37;;;;;;;5.10;1.40;;;7.50;99.90;;;;;;5074481;28;20595;-65
2023/12/27 10:19:04;;;;;;;3.73;1.83;;;7.90;99.90;;;;;;5077116;28;20501;-65
2023/12/27 10:21:41;;;;;;;8.17;2.70;;;8.20;99.90;;;;;;5077674;28;20486;-65
2023/12/27 10:24:08;;;;;;;13.67;2.30;;;8.40;99.90;;;;;;5078152;28;20722;-64
2023/12/27 10:26:37;;;;;;;5.23;2.50;;;8.60;99.90;;;;;;5078076;28;20583;-64
2023/12/27 10:29:04;;;;;;;13.93;2.47;;;8.70;99.90;;;;;;5078136;28;20541;-64
2023/12/27 10:31:31;;;;;;;10.23;4.87;;;8.60;99.90;;;;;;5077909;28;20484;-65
2023/12/27 10:34:02;;;;;;;13.37;4.23;;;8.60;99.90;;;;;;5078089;28;20473;-65
2023/12/27 10:36:30;;;;;;;9.10;3.10;;;8.50;99.90;;;;;;5077867;28;20472;-64
2023/12/27 10:39:01;;;;;;;8.87;4.60;;;8.30;99.90;;;;;;5077953;28;20537;-63
2023/12/27 10:41:28;;;;;;;4.77;2.70;;;8.10;99.90;;;;;;5077811;28;20465;-64
2023/12/27 10:43:57;;;;;;;4.90;2.57;;;8.00;99.90;;;;;;5077676;28;20532;-64
2023/12/27 10:46:24;;;;;;;5.10;2.33;;;7.90;99.90;;;;;;5077447;28;20487;-65
2023/12/27 10:48:57;;;;;;;13.23;2.40;;;7.70;99.90;;;;;;5077921;28;20480;-63
2023/12/27 10:51:26;;;;;;;7.87;2.20;;;7.60;99.90;;;;;;5077457;28;20484;-64
2023/12/27 10:53:58;;;;;;;9.33;2.60;;;7.40;99.90;;;;;;5077664;28;20485;-63
2023/12/27 10:56:26;;;;;;;7.30;2.10;;;7.40;99.90;;;;;;5077739;28;20465;-64
2023/12/27 10:58:54;;;;;;;11.00;2.50;;;7.30;99.90;;;;;;5077335;28;20513;-64
2023/12/27 11:01:22;;;;;;;5.43;1.93;;;7.20;99.90;;;;;;5077091;28;20515;-65
2023/12/27 11:03:50;;;;;;;2.33;1.47;;;7.20;99.90;;;;;;5077485;28;20432;-65
2023/12/27 11:06:17;;;;;;;7.53;2.53;;;7.10;99.90;;;;;;5077269;28;20544;-64
2023/12/27 11:08:46;;;;;;;7.73;2.37;;;7.10;99.90;;;;;;5077276;28;20484;-64
2023/12/27 11:11:14;;;;;;;6.00;1.83;;;7.10;99.90;;;;;;5077100;28;20531;-65
2023/12/27 11:13:43;;;;;;;7.10;2.10;;;7.10;99.90;;;;;;5077091;28;20514;-64
2023/12/27 11:16:13;;;;;;;12.77;2.33;;;7.20;99.90;;;;;;5077169;28;20523;-64
2023/12/27 11:18:42;;;;;;;10.40;2.03;;;7.20;99.90;;;;;;5076979;28;20491;-65
2023/12/27 11:21:09;;;;;;;8.90;1.87;;;7.20;99.90;;;;;;5077178;28;20524;-66
2023/12/27 11:23:36;;;;;;;2.77;1.77;;;7.10;99.90;;;;;;5077093;28;20445;-66
2023/12/27 11:26:05;;;;;;;12.63;2.20;;;7.10;99.90;;;;;;5077126;28;20457;-64
2023/12/27 11:28:34;;;;;;;3.40;1.67;;;7.10;99.90;;;;;;5076839;28;20482;-64
2023/12/27 11:31:01;;;;;;;3.87;1.60;;;7.10;99.90;;;;;;5077150;28;20855;-65
2023/12/27 11:33:28;;;;;;;6.27;1.70;;;7.10;99.90;;;;;;5076956;28;20527;-65
2023/12/27 11:35:58;;;;;;;6.20;2.87;;;7.10;99.90;;;;;;5076867;28;20481;-65
2023/12/27 11:38:27;;;;;;;7.83;2.00;;;7.10;99.90;;;;;;5077102;28;20464;-65
2023/12/27 11:40:56;;;;;;;6.53;2.33;;;7.10;99.90;;;;;;5076843;28;20843;-65
2023/12/27 11:43:25;;;;;;;13.17;2.00;;;6.80;99.90;;;;;;5076432;28;20957;-65
2023/12/27 11:46:00;;;;;;;3.27;1.47;;;7.10;99.90;;;;;;5076467;28;20504;-65
2023/12/27 11:48:28;;;;;;;6.47;1.57;;;7.10;99.90;;;;;;5076386;28;21170;-64
2023/12/27 11:50:57;;;;;;;3.77;1.80;;;7.00;99.90;;;;;;5076569;28;20440;-66
2023/12/27 11:53:27;;;;;;;8.63;1.47;;;7.00;99.90;;;;;;5076188;28;20554;-65
2023/12/27 11:55:54;;;;;;;4.63;1.73;;;7.00;99.90;;;;;;5076399;28;20455;-67
2023/12/27 11:58:31;;;;;;;5.50;2.00;;;6.90;99.90;;;;;;5077951;28;20476;-66
2023/12/27 12:01:20;;;;;;;7.13;2.03;;;6.90;99.90;;;;;;5076131;28;21018;-66
2023/12/27 12:03:56;;;;;;;2.93;1.47;;;6.80;99.90;;;;;;5076229;28;20472;-65
2023/12/27 12:06:47;;;;;;;3.83;1.80;;;6.90;99.90;;;;;;5075953;28;20458;-65
2023/12/27 12:09:16;;;;;;;7.47;3.03;;;6.80;99.90;;;;;;5053642;28;20559;-65
2023/12/27 12:11:44;;;;;;;7.83;2.23;;;6.90;99.90;;;;;;5076108;28;20526;-65
2023/12/27 12:14:11;;;;;;;13.60;4.67;;;6.90;99.90;;;;;;5076129;28;20437;-66
2023/12/27 12:16:39;;;;;;;13.13;5.27;;;6.80;99.90;;;;;;5075809;28;20528;-64
2023/12/27 12:19:08;;;;;;;13.50;4.10;;;6.90;99.90;;;;;;5076013;28;20514;-64
2023/12/27 12:21:40;;;;;;;16.07;5.90;;;6.90;99.90;;;;;;5076007;28;20440;-65
2023/12/27 12:24:08;;;;;;;11.43;2.80;;;6.80;99.90;;;;;;5075989;28;20425;-64
2023/12/27 12:26:35;;;;;;;6.60;2.80;;;6.90;99.90;;;;;;5075832;28;20553;-65
2023/12/27 12:29:03;;;;;;;5.23;2.20;;;6.90;99.90;;;;;;5075743;28;20480;-65
2023/12/27 12:31:30;;;;;;;5.37;1.90;;;6.90;99.90;;;;;;5077869;28;20447;-65
2023/12/27 12:33:57;;;;;;;4.00;1.80;;;6.90;99.90;;;;;;5081343;28;20477;-64
2023/12/27 12:36:25;;;;;;;7.33;1.77;;;6.90;99.90;;;;;;5096645;28;20978;-65
2023/12/27 12:38:53;;;;;;;5.60;1.63;;;6.80;99.90;;;;;;5096461;28;20449;-64
2023/12/27 12:41:26;;;;;;;8.70;1.80;;;6.80;99.90;;;;;;5095906;28;20468;-65
2023/12/27 12:43:52;;;;;;;4.83;1.53;;;6.80;99.90;;;;;;5094333;28;20495;-64
2023/12/27 12:46:19;;;;;;;4.50;1.67;;;6.90;99.90;;;;;;5094630;28;20493;-65
2023/12/27 12:48:49;;;;;;;8.60;2.30;;;6.30;99.90;;;;;;5089213;28;20524;-65
2023/12/27 12:51:19;;;;;;;3.30;1.40;;;6.90;99.90;;;;;;5085009;28;20458;-65
2023/12/27 12:53:46;;;;;;;5.70;1.57;;;6.90;99.90;;;;;;5085698;28;20469;-64
2023/12/27 12:56:15;;;;;;;5.53;1.87;;;6.90;99.90;;;;;;5077838;28;20454;-67
2023/12/27 12:58:44;;;;;;;3.57;1.50;;;6.90;99.90;;;;;;5076125;28;20526;-64